createdAt,value
2019-04-22T00:00:55.984Z,14.57
2019-04-22T00:03:34.996Z,14.53
2019-04-22T00:06:21.095Z,14.51
2019-04-22T00:08:57.678Z,14.49
2019-04-22T00:11:38.464Z,14.44
2019-04-22T00:13:57.056Z,14.43
2019-04-22T00:16:33.805Z,14.39
2019-04-22T00:19:08.956Z,14.36
2019-04-22T00:21:33.327Z,14.31
2019-04-22T00:23:59.110Z,14.28
2019-04-22T00:29:13.838Z,14.24
2019-04-22T00:34:45.472Z,14.20
2019-04-22T00:37:19.209Z,14.14
2019-04-22T00:39:48.852Z,14.12
2019-04-22T00:42:24.310Z,14.11
2019-04-22T00:44:56.890Z,14.06
2019-04-22T00:47:29.200Z,13.92
2019-04-22T00:52:28.280Z,13.82
2019-04-22T00:54:59.448Z,13.79
2019-04-22T00:57:27.848Z,13.80
2019-04-22T00:59:58.571Z,13.78
2019-04-22T01:02:34.231Z,13.75
2019-04-22T01:05:00.721Z,13.71
2019-04-22T01:07:30.439Z,13.71
2019-04-22T01:10:06.958Z,13.66
2019-04-22T01:12:39.223Z,13.55
2019-04-22T01:15:09.233Z,13.55
2019-04-22T01:17:39.376Z,13.49
2019-04-22T01:20:24.606Z,13.48
2019-04-22T01:22:34.323Z,13.40
2019-04-22T01:25:08.545Z,13.42
2019-04-22T01:27:34.877Z,13.28
2019-04-22T01:30:04.624Z,13.28
2019-04-22T01:32:30.455Z,13.22
2019-04-22T01:35:08.351Z,13.13
2019-04-22T01:37:45.906Z,13.12
2019-04-22T01:40:24.138Z,13.12
2019-04-22T01:42:55.856Z,13.10
2019-04-22T01:45:25.724Z,13.10
2019-04-22T01:47:56.397Z,13.07
2019-04-22T01:50:27.765Z,13.00
2019-04-22T01:52:58.624Z,12.97
2019-04-22T01:55:31.076Z,12.97
2019-04-22T01:57:53.671Z,12.94
2019-04-22T02:00:38.444Z,12.92
2019-04-22T02:03:05.561Z,12.91
2019-04-22T02:05:29.024Z,12.92
2019-04-22T02:08:09.683Z,12.91
2019-04-22T02:10:39.837Z,12.90
2019-04-22T02:13:08.304Z,12.90
2019-04-22T02:15:39.637Z,12.89
2019-04-22T02:18:18.322Z,12.87
2019-04-22T02:20:43.276Z,12.84
2019-04-22T02:26:07.625Z,12.84
2019-04-22T02:28:38.226Z,12.83
2019-04-22T02:51:28.519Z,12.75
2019-04-22T02:56:27.523Z,12.74
2019-04-22T03:06:30.775Z,12.57
2019-04-22T03:16:32.045Z,12.59
2019-04-22T03:19:02.847Z,12.61
2019-04-22T03:21:33.752Z,12.62
2019-04-22T03:26:49.877Z,12.62
2019-04-22T03:29:04.557Z,12.64
2019-04-22T03:42:07.560Z,12.58
2019-04-22T03:49:49.903Z,12.53
2019-04-22T03:57:33.902Z,12.53
2019-04-22T03:59:41.477Z,12.51
2019-04-22T04:02:29.197Z,12.49
2019-04-22T04:04:37.156Z,12.47
2019-04-22T04:07:20.514Z,12.46
2019-04-22T04:12:12.295Z,12.46
2019-04-22T04:14:55.680Z,12.44
2019-04-22T04:17:22.468Z,12.43
2019-04-22T04:22:30.255Z,12.41
2019-04-22T04:27:53.812Z,12.41
2019-04-22T04:30:05.548Z,12.41
2019-04-22T04:32:36.445Z,12.43
2019-04-22T04:37:40.889Z,12.41
2019-04-22T04:40:11.827Z,12.40
2019-04-22T04:42:41.369Z,12.39
2019-04-22T04:50:09.787Z,12.33
2019-04-22T04:55:18.532Z,12.28
2019-04-22T04:57:43.585Z,12.29
2019-04-22T05:00:39.456Z,12.30
2019-04-22T05:02:44.677Z,12.28
2019-04-22T05:05:12.074Z,12.26
2019-04-22T05:07:41.728Z,12.26
2019-04-22T05:12:53.118Z,12.26
2019-04-22T05:17:43.638Z,12.28
2019-04-22T05:20:29.004Z,12.25
2019-04-22T05:27:46.892Z,12.22
2019-04-22T05:35:23.029Z,12.17
2019-04-22T05:37:50.016Z,12.14
2019-04-22T05:40:25.461Z,12.16
2019-04-22T05:42:51.520Z,12.17
2019-04-22T05:45:19.150Z,12.18
2019-04-22T05:47:52.055Z,12.20
2019-04-22T05:52:57.071Z,12.24
2019-04-22T05:55:33.244Z,12.25
2019-04-22T06:00:47.358Z,12.29
2019-04-22T06:05:35.838Z,12.33
2019-04-22T06:08:04.120Z,12.36
2019-04-22T06:13:04.464Z,12.40
2019-04-22T06:15:37.268Z,12.43
2019-04-22T06:21:00.489Z,12.48
2019-04-22T06:23:25.618Z,12.51
2019-04-22T06:26:07.384Z,12.54
2019-04-22T06:33:27.389Z,12.66
2019-04-22T06:41:07.363Z,12.78
2019-04-22T06:43:34.952Z,12.83
2019-04-22T06:46:06.358Z,12.88
2019-04-22T06:48:29.801Z,12.91
2019-04-22T06:51:00.555Z,12.94
2019-04-22T06:53:34.449Z,12.97
2019-04-22T06:56:05.105Z,12.99
2019-04-22T06:58:42.509Z,13.02
2019-04-22T07:01:09.881Z,13.04
2019-04-22T07:06:17.574Z,13.09
2019-04-22T07:09:08.813Z,13.10
2019-04-22T07:11:07.929Z,13.11
2019-04-22T07:14:01.684Z,13.14
2019-04-22T07:16:20.785Z,13.15
2019-04-22T07:18:48.427Z,13.19
2019-04-22T07:21:12.521Z,13.21
2019-04-22T07:24:03.095Z,13.25
2019-04-22T07:26:21.885Z,13.28
2019-04-22T07:28:50.530Z,13.32
2019-04-22T07:31:20.545Z,13.37
2019-04-22T07:33:51.979Z,13.40
2019-04-22T07:36:49.018Z,13.44
2019-04-22T07:38:56.485Z,13.49
2019-04-22T07:41:27.371Z,13.53
2019-04-22T07:44:13.887Z,13.59
2019-04-22T07:46:33.628Z,13.62
2019-04-22T07:49:06.549Z,13.68
2019-04-22T07:51:32.662Z,13.71
2019-04-22T07:54:01.289Z,13.77
2019-04-22T07:56:36.699Z,13.86
2019-04-22T07:59:09.470Z,13.86
2019-04-22T08:01:35.529Z,13.95
2019-04-22T08:04:21.650Z,14.01
2019-04-22T08:06:38.712Z,14.03
2019-04-22T08:09:13.923Z,14.10
2019-04-22T08:11:51.592Z,14.15
2019-04-22T08:14:18.817Z,14.21
2019-04-22T08:16:45.169Z,14.29
2019-04-22T08:19:24.940Z,14.35
2019-04-22T08:21:45.492Z,14.46
2019-04-22T08:24:18.439Z,14.46
2019-04-22T08:26:51.760Z,14.57
2019-04-22T08:29:21.983Z,14.57
2019-04-22T08:34:21.239Z,14.68
2019-04-22T08:37:12.381Z,14.74
2019-04-22T08:41:45.314Z,14.80
2019-04-22T08:44:42.578Z,14.86
2019-04-22T08:47:04.220Z,14.90
2019-04-22T08:49:34.548Z,14.95
2019-04-22T08:52:01.292Z,15.00
2019-04-22T08:54:30.885Z,15.09
2019-04-22T08:57:03.136Z,15.16
2019-04-22T08:59:28.386Z,15.24
2019-04-22T09:02:09.315Z,15.29
2019-04-22T09:04:30.559Z,15.34
2019-04-22T09:09:37.906Z,15.38
2019-04-22T09:14:41.705Z,15.40
2019-04-22T09:17:17.968Z,15.43
2019-04-22T09:19:40.496Z,15.45
2019-04-22T09:22:17.251Z,15.49
2019-04-22T09:24:43.547Z,15.55
2019-04-22T09:29:42.990Z,15.63
2019-04-22T09:32:18.890Z,15.66
2019-04-22T09:34:47.653Z,15.69
2019-04-22T09:40:12.136Z,15.75
2019-04-22T09:42:24.708Z,15.79
2019-04-22T09:47:30.811Z,15.88
2019-04-22T09:50:03.684Z,15.92
2019-04-22T09:52:23.996Z,15.97
2019-04-22T09:55:12.457Z,16.02
2019-04-22T09:57:24.902Z,16.08
2019-04-22T10:00:02.261Z,16.14
2019-04-22T10:02:38.844Z,16.20
2019-04-22T10:05:07.924Z,16.27
2019-04-22T10:07:31.898Z,16.37
2019-04-22T10:10:09.048Z,16.51
2019-04-22T10:12:41.621Z,16.70
2019-04-22T10:15:19.591Z,16.87
2019-04-22T10:17:37.960Z,17.01
2019-04-22T10:25:10.774Z,17.49
2019-04-22T10:27:45.537Z,17.57
2019-04-22T10:30:15.122Z,17.65
2019-04-22T10:32:44.672Z,17.74
2019-04-22T10:35:12.239Z,17.81
2019-04-22T10:37:36.621Z,17.88
2019-04-22T10:40:11.211Z,17.92
2019-04-22T10:42:43.398Z,17.97
2019-04-22T10:45:14.463Z,18.05
2019-04-22T10:47:43.975Z,18.14
2019-04-22T10:50:14.778Z,18.22
2019-04-22T10:52:45.484Z,18.30
2019-04-22T10:55:15.121Z,18.39
2019-04-22T10:57:46.375Z,18.47
2019-04-22T11:00:17.683Z,18.55
2019-04-22T11:02:47.845Z,18.65
2019-04-22T11:05:17.293Z,18.71
2019-04-22T11:07:53.772Z,18.77
2019-04-22T11:10:35.134Z,18.85
2019-04-22T11:12:49.438Z,18.94
2019-04-22T11:15:19.252Z,19.02
2019-04-22T11:17:49.582Z,19.12
2019-04-22T11:20:19.884Z,19.19
2019-04-22T11:22:50.938Z,19.25
2019-04-22T11:25:21.676Z,19.31
2019-04-22T11:27:51.413Z,19.36
2019-04-22T11:30:24.314Z,19.41
2019-04-22T11:32:52.158Z,19.45
2019-04-22T11:35:21.962Z,19.50
2019-04-22T11:37:52.433Z,19.56
2019-04-22T11:40:29.821Z,19.62
2019-04-22T11:42:54.525Z,19.66
2019-04-22T11:45:24.110Z,19.71
2019-04-22T11:47:53.480Z,19.78
2019-04-22T11:50:26.126Z,19.85
2019-04-22T11:52:55.714Z,19.93
2019-04-22T11:55:26.676Z,19.97
2019-04-22T11:57:56.495Z,20.00
2019-04-22T12:00:32.857Z,20.00
2019-04-22T12:03:03.187Z,20.02
2019-04-22T12:05:34.215Z,20.09
2019-04-22T12:08:05.017Z,20.13
2019-04-22T12:10:42.504Z,20.20
2019-04-22T12:13:06.300Z,20.29
2019-04-22T12:15:37.331Z,20.33
2019-04-22T12:18:09.012Z,20.44
2019-04-22T12:20:39.188Z,20.59
2019-04-22T12:23:09.438Z,20.79
2019-04-22T12:25:46.481Z,21.08
2019-04-22T12:28:11.071Z,21.35
2019-04-22T12:30:41.723Z,21.54
2019-04-22T12:33:14.765Z,21.67
2019-04-22T12:35:42.361Z,21.81
2019-04-22T12:38:14.357Z,21.96
2019-04-22T12:40:52.273Z,22.09
2019-04-22T12:43:16.092Z,22.18
2019-04-22T12:45:44.982Z,22.24
2019-04-22T12:48:14.980Z,22.31
2019-04-22T12:50:47.777Z,22.37
2019-04-22T12:53:19.753Z,22.42
2019-04-22T12:55:48.082Z,22.39
2019-04-22T12:58:18.099Z,22.32
2019-04-22T13:00:48.417Z,22.37
2019-04-22T13:03:18.210Z,22.40
2019-04-22T13:05:49.341Z,22.51
2019-04-22T13:08:20.003Z,22.58
2019-04-22T13:10:58.403Z,22.64
2019-04-22T13:13:20.834Z,22.67
2019-04-22T13:15:51.055Z,22.85
2019-04-22T13:18:31.037Z,23.00
2019-04-22T13:20:52.823Z,23.09
2019-04-22T13:23:22.283Z,23.15
2019-04-22T13:25:52.661Z,23.29
2019-04-22T13:28:23.011Z,23.45
2019-04-22T13:30:52.811Z,23.53
2019-04-22T13:33:23.192Z,23.46
2019-04-22T13:35:54.240Z,23.38
2019-04-22T13:38:24.982Z,23.31
2019-04-22T13:41:09.760Z,23.16
2019-04-22T13:43:26.745Z,23.02
2019-04-22T13:45:56.415Z,22.97
2019-04-22T13:48:46.578Z,22.99
2019-04-22T13:54:36.302Z,22.96
2019-04-22T13:56:19.359Z,22.94
2019-04-22T13:58:46.138Z,22.88
2019-04-22T14:01:06.975Z,22.80
2019-04-22T14:04:02.657Z,22.90
2019-04-22T14:06:32.192Z,23.24
2019-04-22T14:09:03.116Z,23.45
2019-04-22T14:11:41.612Z,23.32
2019-04-22T14:14:05.101Z,23.11
2019-04-22T14:16:35.280Z,22.91
2019-04-22T14:19:05.689Z,22.75
2019-04-22T14:21:36.825Z,22.59
2019-04-22T14:24:07.053Z,22.52
2019-04-22T14:26:52.351Z,22.47
2019-04-22T14:29:08.818Z,22.39
2019-04-22T14:31:38.408Z,22.32
2019-04-22T14:34:12.013Z,22.25
2019-04-22T14:36:41.596Z,22.19
2019-04-22T14:39:12.283Z,22.11
2019-04-22T14:41:57.461Z,22.08
2019-04-22T14:47:15.733Z,21.98
2019-04-22T14:49:36.448Z,21.91
2019-04-22T14:52:13.278Z,21.86
2019-04-22T14:54:31.013Z,21.79
2019-04-22T14:56:48.651Z,21.76
2019-04-22T14:59:18.899Z,21.83
2019-04-22T15:01:49.655Z,21.97
2019-04-22T15:04:19.415Z,22.00
2019-04-22T15:06:50.389Z,22.00
2019-04-22T15:09:19.879Z,21.92
2019-04-22T15:11:58.198Z,21.87
2019-04-22T15:14:21.495Z,21.91
2019-04-22T15:17:18.814Z,21.99
2019-04-22T15:19:54.060Z,22.14
2019-04-22T15:22:23.377Z,22.42
2019-04-22T15:24:52.731Z,22.75
2019-04-22T15:27:22.596Z,23.05
2019-04-22T15:29:53.580Z,23.20
2019-04-22T15:32:23.444Z,23.35
2019-04-22T15:34:53.417Z,23.43
2019-04-22T15:37:24.266Z,23.48
2019-04-22T15:39:56.317Z,23.58
2019-04-22T15:42:28.794Z,23.68
2019-04-22T15:44:56.104Z,23.75
2019-04-22T15:47:26.895Z,23.65
2019-04-22T15:49:56.506Z,23.46
2019-04-22T15:52:34.940Z,23.48
2019-04-22T15:54:58.497Z,23.60
2019-04-22T15:57:28.915Z,23.47
2019-04-22T16:00:14.669Z,23.31
2019-04-22T16:02:29.837Z,23.17
2019-04-22T16:04:59.277Z,23.10
2019-04-22T16:07:29.777Z,23.02
2019-04-22T16:09:59.664Z,22.87
2019-04-22T16:12:38.840Z,22.75
2019-04-22T16:15:03.106Z,22.78
2019-04-22T16:17:32.681Z,22.88
2019-04-22T16:20:03.548Z,23.02
2019-04-22T16:22:52.012Z,23.10
2019-04-22T16:25:41.066Z,23.18
2019-04-22T16:28:11.122Z,23.16
2019-04-22T16:30:41.391Z,23.09
2019-04-22T16:33:10.987Z,22.96
2019-04-22T16:35:40.574Z,22.84
2019-04-22T16:38:10.898Z,22.78
2019-04-22T16:40:40.900Z,22.71
2019-04-22T16:43:13.118Z,22.60
2019-04-22T16:45:41.427Z,22.51
2019-04-22T16:48:11.603Z,22.51
2019-04-22T16:50:43.597Z,22.57
2019-04-22T16:53:14.177Z,22.47
2019-04-22T16:55:44.713Z,22.40
2019-04-22T16:58:14.827Z,22.43
2019-04-22T17:00:45.045Z,22.50
2019-04-22T17:03:42.883Z,22.59
2019-04-22T17:06:21.531Z,22.54
2019-04-22T17:08:51.159Z,22.35
2019-04-22T17:11:22.028Z,22.17
2019-04-22T17:13:52.915Z,22.05
2019-04-22T17:16:24.337Z,21.92
2019-04-22T17:18:54.245Z,21.82
2019-04-22T17:21:23.773Z,21.72
2019-04-22T17:23:53.942Z,21.61
2019-04-22T17:26:24.357Z,21.53
2019-04-22T17:28:55.411Z,21.43
2019-04-22T17:31:24.933Z,21.35
2019-04-22T17:33:54.944Z,21.32
2019-04-22T17:36:24.440Z,21.30
2019-04-22T17:39:12.622Z,21.25
2019-04-22T17:41:41.831Z,21.18
2019-04-22T17:44:28.759Z,21.15
2019-04-22T17:46:51.386Z,21.11
2019-04-22T17:49:37.697Z,21.09
2019-04-22T17:55:04.538Z,20.98
2019-04-22T17:57:23.921Z,20.89
2019-04-22T17:59:54.690Z,20.84
2019-04-22T18:02:25.248Z,20.78
2019-04-22T18:04:46.759Z,20.71
2019-04-22T18:07:35.490Z,20.61
2019-04-22T18:12:38.589Z,20.52
2019-04-22T18:17:41.136Z,20.46
2019-04-22T18:20:04.358Z,20.42
2019-04-22T18:22:31.125Z,20.37
2019-04-22T18:25:01.004Z,20.32
2019-04-22T18:27:48.929Z,20.29
2019-04-22T18:30:03.904Z,20.26
2019-04-22T18:32:42.457Z,20.22
2019-04-22T18:35:14.297Z,20.18
2019-04-22T18:37:49.944Z,20.12
2019-04-22T18:40:15.137Z,20.07
2019-04-22T18:42:52.424Z,20.02
2019-04-22T18:45:35.766Z,19.98
2019-04-22T18:47:46.581Z,19.91
2019-04-22T18:50:34.133Z,19.85
2019-04-22T18:53:18.900Z,19.78
2019-04-22T18:55:55.492Z,19.69
2019-04-22T18:58:24.597Z,19.61
2019-04-22T19:00:45.863Z,19.54
2019-04-22T19:03:20.257Z,19.48
2019-04-22T19:06:13.104Z,19.42
2019-04-22T19:08:36.773Z,19.33
2019-04-22T19:11:13.995Z,19.28
2019-04-22T19:13:56.106Z,19.21
2019-04-22T19:16:27.450Z,19.14
2019-04-22T19:18:50.514Z,19.06
2019-04-22T19:21:23.471Z,18.98
2019-04-22T19:23:51.983Z,18.91
2019-04-22T19:26:25.587Z,18.86
2019-04-22T19:28:58.880Z,18.79
2019-04-22T19:31:38.728Z,18.72
2019-04-22T19:33:53.778Z,18.67
2019-04-22T19:36:22.717Z,18.61
2019-04-22T19:38:52.674Z,18.54
2019-04-22T19:43:56.926Z,18.44
2019-04-22T19:46:24.590Z,18.39
2019-04-22T19:49:05.119Z,18.34
2019-04-22T19:51:37.020Z,18.30
2019-04-22T19:54:01.475Z,18.26
2019-04-22T19:56:22.741Z,18.22
2019-04-22T19:58:56.381Z,18.16
2019-04-22T20:01:47.265Z,18.12
2019-04-22T20:07:11.704Z,18.06
2019-04-22T20:09:48.120Z,18.01
2019-04-22T20:12:10.658Z,17.98
2019-04-22T20:14:44.968Z,17.93
2019-04-22T20:17:23.270Z,17.91
2019-04-22T20:22:17.868Z,17.81
2019-04-22T20:24:43.512Z,17.80
2019-04-22T20:27:23.776Z,17.76
2019-04-22T20:29:56.398Z,17.75
2019-04-22T20:32:22.110Z,17.73
2019-04-22T20:34:57.906Z,17.70
2019-04-22T20:39:52.957Z,17.62
2019-04-22T20:42:48.370Z,17.60
2019-04-22T20:45:04.213Z,17.59
2019-04-22T20:47:29.199Z,17.56
2019-04-22T20:49:58.676Z,17.54
2019-04-22T20:52:43.539Z,17.52
2019-04-22T20:55:02.642Z,17.49
2019-04-22T20:57:34.835Z,17.47
2019-04-22T21:00:02.199Z,17.45
2019-04-22T21:02:31.275Z,17.45
2019-04-22T21:04:57.100Z,17.43
2019-04-22T21:07:32.054Z,17.41
2019-04-22T21:10:08.370Z,17.39
2019-04-22T21:12:33.680Z,17.35
2019-04-22T21:15:12.516Z,17.32
2019-04-22T21:17:45.961Z,17.30
2019-04-22T21:20:22.021Z,17.25
2019-04-22T21:22:48.245Z,17.22
2019-04-22T21:25:12.449Z,17.19
2019-04-22T21:27:51.008Z,17.16
2019-04-22T21:30:21.231Z,17.14
2019-04-22T21:32:49.399Z,17.11
2019-04-22T21:35:45.578Z,17.09
2019-04-22T21:37:57.981Z,17.09
2019-04-22T21:40:30.120Z,17.06
2019-04-22T21:42:59.548Z,17.07
2019-04-22T21:45:23.787Z,17.06
2019-04-22T21:47:57.699Z,17.06
2019-04-22T21:50:41.343Z,17.05
2019-04-22T21:53:08.803Z,17.05
2019-04-22T21:55:37.598Z,17.06
2019-04-22T21:58:14.840Z,17.08
2019-04-22T22:01:12.998Z,17.09
2019-04-22T22:03:38.658Z,17.09
2019-04-22T22:06:00.273Z,17.07
2019-04-22T22:08:40.632Z,17.04
2019-04-22T22:11:11.296Z,17.02
2019-04-22T22:13:39.233Z,17.01
2019-04-22T22:16:06.710Z,17.00
2019-04-22T22:18:34.944Z,17.00
2019-04-22T22:21:35.913Z,16.99
2019-04-22T22:23:42.381Z,16.97
2019-04-22T22:26:09.760Z,16.97
2019-04-22T22:29:02.084Z,16.95
2019-04-22T22:31:26.979Z,16.94
2019-04-22T22:33:54.391Z,16.95
2019-04-22T22:36:16.259Z,16.95
2019-04-22T22:38:46.883Z,16.95
2019-04-22T22:41:01.707Z,16.93
2019-04-22T22:43:35.867Z,16.93
2019-04-22T22:46:15.003Z,16.92
2019-04-22T22:48:59.795Z,16.91
2019-04-22T22:51:34.234Z,16.90
2019-04-22T22:53:58.138Z,16.89
2019-04-22T22:56:26.855Z,16.90
2019-04-22T22:59:00.258Z,16.87
2019-04-22T23:01:34.933Z,16.84
2019-04-22T23:04:03.656Z,16.80
2019-04-22T23:06:39.086Z,16.76
2019-04-22T23:09:04.250Z,16.73
2019-04-22T23:11:52.553Z,16.72
2019-04-22T23:14:11.904Z,16.70
2019-04-22T23:16:25.549Z,16.69
2019-04-22T23:19:06.852Z,16.66
2019-04-22T23:21:41.638Z,16.64
2019-04-22T23:24:44.860Z,16.61
2019-04-22T23:27:16.024Z,16.58
2019-04-22T23:30:09.224Z,16.56
2019-04-22T23:32:42.656Z,16.55
2019-04-22T23:35:42.412Z,16.53
2019-04-22T23:38:12.156Z,16.50
2019-04-22T23:40:52.768Z,16.47
2019-04-22T23:45:50.318Z,16.41
2019-04-22T23:48:17.894Z,16.39
2019-04-22T23:50:57.456Z,16.37
2019-04-22T23:56:13.563Z,16.33
2019-04-22T23:58:52.707Z,16.29
